sensor_id;sensor_type;location;lat;lon;timestamp;P1;durP1;ratioP1;P2;durP2;ratioP2
22024;SDS011;11176;51.448;6.650;2023-07-08T00:00:53;5.85;;;3.20;;
22024;SDS011;11176;51.448;6.650;2023-07-08T00:03:20;6.53;;;3.35;;
22024;SDS011;11176;51.448;6.650;2023-07-08T00:05:47;6.45;;;3.40;;
22024;SDS011;11176;51.448;6.650;2023-07-08T00:08:19;6.72;;;2.90;;
22024;SDS011;11176;51.448;6.650;2023-07-08T00:10:46;8.73;;;3.00;;
22024;SDS011;11176;51.448;6.650;2023-07-08T00:13:13;5.30;;;2.60;;
22024;SDS011;11176;51.448;6.650;2023-07-08T00:15:40;9.00;;;2.78;;
22024;SDS011;11176;51.448;6.650;2023-07-08T00:18:14;6.95;;;2.80;;
22024;SDS011;11176;51.448;6.650;2023-07-08T00:23:15;4.57;;;3.03;;
22024;SDS011;11176;51.448;6.650;2023-07-08T00:25:42;6.70;;;3.00;;
22024;SDS011;11176;51.448;6.650;2023-07-08T00:30:41;7.25;;;3.75;;
22024;SDS011;11176;51.448;6.650;2023-07-08T00:33:08;6.55;;;3.22;;
22024;SDS011;11176;51.448;6.650;2023-07-08T00:35:35;6.00;;;3.13;;
22024;SDS011;11176;51.448;6.650;2023-07-08T00:38:13;7.40;;;3.30;;
22024;SDS011;11176;51.448;6.650;2023-07-08T00:41:27;6.05;;;3.10;;
22024;SDS011;11176;51.448;6.650;2023-07-08T00:43:53;6.65;;;3.40;;
22024;SDS011;11176;51.448;6.650;2023-07-08T00:46:31;7.72;;;3.72;;
22024;SDS011;11176;51.448;6.650;2023-07-08T00:51:34;7.35;;;3.58;;
22024;SDS011;11176;51.448;6.650;2023-07-08T00:54:14;6.13;;;3.40;;
22024;SDS011;11176;51.448;6.650;2023-07-08T00:56:43;5.97;;;3.28;;
22024;SDS011;11176;51.448;6.650;2023-07-08T01:01:54;6.32;;;2.90;;
22024;SDS011;11176;51.448;6.650;2023-07-08T01:04:24;6.45;;;3.17;;
22024;SDS011;11176;51.448;6.650;2023-07-08T01:06:58;6.18;;;3.17;;
22024;SDS011;11176;51.448;6.650;2023-07-08T01:09:34;4.53;;;2.70;;
22024;SDS011;11176;51.448;6.650;2023-07-08T01:12:05;5.38;;;2.70;;
22024;SDS011;11176;51.448;6.650;2023-07-08T01:14:39;4.38;;;2.30;;
22024;SDS011;11176;51.448;6.650;2023-07-08T01:17:09;7.18;;;2.42;;
22024;SDS011;11176;51.448;6.650;2023-07-08T01:19:41;6.18;;;2.33;;
22024;SDS011;11176;51.448;6.650;2023-07-08T01:22:08;4.45;;;2.50;;
22024;SDS011;11176;51.448;6.650;2023-07-08T01:24:35;6.05;;;2.55;;
22024;SDS011;11176;51.448;6.650;2023-07-08T01:27:07;5.10;;;2.58;;
22024;SDS011;11176;51.448;6.650;2023-07-08T01:29:38;6.63;;;2.70;;
22024;SDS011;11176;51.448;6.650;2023-07-08T01:32:04;5.88;;;2.50;;
22024;SDS011;11176;51.448;6.650;2023-07-08T01:34:32;5.35;;;2.13;;
22024;SDS011;11176;51.448;6.650;2023-07-08T01:37:01;4.47;;;2.40;;
22024;SDS011;11176;51.448;6.650;2023-07-08T01:39:31;6.03;;;2.60;;
22024;SDS011;11176;51.448;6.650;2023-07-08T01:41:58;6.28;;;2.50;;
22024;SDS011;11176;51.448;6.650;2023-07-08T01:44:29;5.22;;;2.53;;
22024;SDS011;11176;51.448;6.650;2023-07-08T01:49:35;4.63;;;2.30;;
22024;SDS011;11176;51.448;6.650;2023-07-08T01:52:03;4.68;;;2.03;;
22024;SDS011;11176;51.448;6.650;2023-07-08T01:54:30;5.20;;;2.60;;
22024;SDS011;11176;51.448;6.650;2023-07-08T01:56:57;4.18;;;2.38;;
22024;SDS011;11176;51.448;6.650;2023-07-08T01:59:24;4.75;;;2.22;;
22024;SDS011;11176;51.448;6.650;2023-07-08T02:01:52;6.32;;;2.40;;
22024;SDS011;11176;51.448;6.650;2023-07-08T02:04:22;4.65;;;2.17;;
22024;SDS011;11176;51.448;6.650;2023-07-08T02:06:51;4.10;;;2.40;;
22024;SDS011;11176;51.448;6.650;2023-07-08T02:09:21;4.63;;;2.60;;
22024;SDS011;11176;51.448;6.650;2023-07-08T02:11:49;6.07;;;2.65;;
22024;SDS011;11176;51.448;6.650;2023-07-08T02:14:15;5.82;;;2.97;;
22024;SDS011;11176;51.448;6.650;2023-07-08T02:16:42;6.07;;;2.80;;
22024;SDS011;11176;51.448;6.650;2023-07-08T02:19:10;9.30;;;3.05;;
22024;SDS011;11176;51.448;6.650;2023-07-08T02:21:37;6.28;;;2.90;;
22024;SDS011;11176;51.448;6.650;2023-07-08T02:24:06;6.70;;;2.80;;
22024;SDS011;11176;51.448;6.650;2023-07-08T02:26:34;6.45;;;3.28;;
22024;SDS011;11176;51.448;6.650;2023-07-08T02:29:00;5.25;;;3.03;;
22024;SDS011;11176;51.448;6.650;2023-07-08T02:31:29;6.78;;;2.97;;
22024;SDS011;11176;51.448;6.650;2023-07-08T02:33:56;5.60;;;2.83;;
22024;SDS011;11176;51.448;6.650;2023-07-08T02:36:22;6.45;;;3.20;;
22024;SDS011;11176;51.448;6.650;2023-07-08T02:38:49;5.75;;;2.85;;
22024;SDS011;11176;51.448;6.650;2023-07-08T02:41:17;5.32;;;2.72;;
22024;SDS011;11176;51.448;6.650;2023-07-08T02:43:44;5.40;;;2.63;;
22024;SDS011;11176;51.448;6.650;2023-07-08T02:46:10;5.60;;;3.00;;
22024;SDS011;11176;51.448;6.650;2023-07-08T02:48:37;3.65;;;2.60;;
22024;SDS011;11176;51.448;6.650;2023-07-08T02:51:04;5.45;;;2.80;;
22024;SDS011;11176;51.448;6.650;2023-07-08T02:53:32;4.20;;;2.35;;
22024;SDS011;11176;51.448;6.650;2023-07-08T02:55:58;4.68;;;2.75;;
22024;SDS011;11176;51.448;6.650;2023-07-08T02:58:25;5.18;;;2.60;;
22024;SDS011;11176;51.448;6.650;2023-07-08T03:00:52;5.90;;;2.53;;
22024;SDS011;11176;51.448;6.650;2023-07-08T03:03:19;6.20;;;2.63;;
22024;SDS011;11176;51.448;6.650;2023-07-08T03:06:02;5.45;;;2.40;;
22024;SDS011;11176;51.448;6.650;2023-07-08T03:08:31;5.32;;;2.65;;
22024;SDS011;11176;51.448;6.650;2023-07-08T03:10:59;4.80;;;2.80;;
22024;SDS011;11176;51.448;6.650;2023-07-08T03:13:28;4.88;;;2.65;;
22024;SDS011;11176;51.448;6.650;2023-07-08T03:15:56;6.93;;;2.75;;
22024;SDS011;11176;51.448;6.650;2023-07-08T03:18:25;5.00;;;2.45;;
22024;SDS011;11176;51.448;6.650;2023-07-08T03:20:53;3.45;;;2.20;;
22024;SDS011;11176;51.448;6.650;2023-07-08T03:23:22;6.53;;;2.45;;
22024;SDS011;11176;51.448;6.650;2023-07-08T03:25:51;3.55;;;2.20;;
22024;SDS011;11176;51.448;6.650;2023-07-08T03:28:19;5.72;;;2.17;;
22024;SDS011;11176;51.448;6.650;2023-07-08T03:30:50;4.70;;;2.58;;
22024;SDS011;11176;51.448;6.650;2023-07-08T03:33:19;3.90;;;2.50;;
22024;SDS011;11176;51.448;6.650;2023-07-08T03:35:45;5.30;;;2.20;;
22024;SDS011;11176;51.448;6.650;2023-07-08T03:38:12;5.60;;;2.80;;
22024;SDS011;11176;51.448;6.650;2023-07-08T03:40:38;5.65;;;2.85;;
22024;SDS011;11176;51.448;6.650;2023-07-08T03:43:05;5.72;;;2.50;;
22024;SDS011;11176;51.448;6.650;2023-07-08T03:45:32;5.20;;;2.15;;
22024;SDS011;11176;51.448;6.650;2023-07-08T03:47:59;7.10;;;2.35;;
22024;SDS011;11176;51.448;6.650;2023-07-08T03:50:26;3.78;;;2.35;;
22024;SDS011;11176;51.448;6.650;2023-07-08T03:52:54;5.25;;;2.63;;
22024;SDS011;11176;51.448;6.650;2023-07-08T03:55:26;4.70;;;2.58;;
22024;SDS011;11176;51.448;6.650;2023-07-08T03:57:56;5.65;;;2.30;;
22024;SDS011;11176;51.448;6.650;2023-07-08T04:00:24;4.40;;;2.30;;
22024;SDS011;11176;51.448;6.650;2023-07-08T04:02:50;4.85;;;2.60;;
22024;SDS011;11176;51.448;6.650;2023-07-08T04:05:21;6.28;;;3.00;;
22024;SDS011;11176;51.448;6.650;2023-07-08T04:07:49;5.90;;;3.10;;
22024;SDS011;11176;51.448;6.650;2023-07-08T04:10:15;6.15;;;3.33;;
22024;SDS011;11176;51.448;6.650;2023-07-08T04:12:45;4.80;;;3.03;;
22024;SDS011;11176;51.448;6.650;2023-07-08T04:15:11;5.97;;;2.85;;
22024;SDS011;11176;51.448;6.650;2023-07-08T04:17:48;5.43;;;2.72;;
22024;SDS011;11176;51.448;6.650;2023-07-08T04:20:16;5.80;;;3.42;;
22024;SDS011;11176;51.448;6.650;2023-07-08T04:22:44;5.20;;;2.72;;
22024;SDS011;11176;51.448;6.650;2023-07-08T04:25:12;5.43;;;2.92;;
22024;SDS011;11176;51.448;6.650;2023-07-08T04:27:40;4.97;;;2.70;;
22024;SDS011;11176;51.448;6.650;2023-07-08T04:30:07;4.15;;;2.63;;
22024;SDS011;11176;51.448;6.650;2023-07-08T04:32:41;5.38;;;3.20;;
22024;SDS011;11176;51.448;6.650;2023-07-08T04:35:10;4.85;;;2.80;;
22024;SDS011;11176;51.448;6.650;2023-07-08T04:37:36;6.00;;;2.50;;
22024;SDS011;11176;51.448;6.650;2023-07-08T04:40:04;5.03;;;2.67;;
22024;SDS011;11176;51.448;6.650;2023-07-08T04:42:31;4.18;;;2.88;;
22024;SDS011;11176;51.448;6.650;2023-07-08T04:44:58;4.93;;;2.60;;
22024;SDS011;11176;51.448;6.650;2023-07-08T04:47:24;6.38;;;2.78;;
22024;SDS011;11176;51.448;6.650;2023-07-08T04:49:50;7.32;;;3.22;;
22024;SDS011;11176;51.448;6.650;2023-07-08T04:52:17;6.82;;;2.85;;
22024;SDS011;11176;51.448;6.650;2023-07-08T04:54:43;5.90;;;3.35;;
22024;SDS011;11176;51.448;6.650;2023-07-08T04:57:10;6.15;;;3.03;;
22024;SDS011;11176;51.448;6.650;2023-07-08T04:59:36;5.85;;;3.25;;
22024;SDS011;11176;51.448;6.650;2023-07-08T05:02:03;5.95;;;2.80;;
22024;SDS011;11176;51.448;6.650;2023-07-08T05:04:29;6.60;;;3.38;;
22024;SDS011;11176;51.448;6.650;2023-07-08T05:06:56;5.20;;;3.28;;
22024;SDS011;11176;51.448;6.650;2023-07-08T05:09:22;4.68;;;2.95;;
22024;SDS011;11176;51.448;6.650;2023-07-08T05:11:52;6.55;;;3.17;;
22024;SDS011;11176;51.448;6.650;2023-07-08T05:14:18;5.15;;;2.80;;
22024;SDS011;11176;51.448;6.650;2023-07-08T05:16:45;6.85;;;2.85;;
22024;SDS011;11176;51.448;6.650;2023-07-08T05:19:11;6.22;;;2.55;;
22024;SDS011;11176;51.448;6.650;2023-07-08T05:21:38;4.68;;;2.75;;
22024;SDS011;11176;51.448;6.650;2023-07-08T05:24:05;5.80;;;2.78;;
22024;SDS011;11176;51.448;6.650;2023-07-08T05:26:32;6.07;;;2.90;;
22024;SDS011;11176;51.448;6.650;2023-07-08T05:28:59;4.72;;;2.58;;
22024;SDS011;11176;51.448;6.650;2023-07-08T05:31:26;9.65;;;3.08;;
22024;SDS011;11176;51.448;6.650;2023-07-08T05:34:12;4.93;;;2.78;;
22024;SDS011;11176;51.448;6.650;2023-07-08T05:36:38;6.70;;;3.33;;
22024;SDS011;11176;51.448;6.650;2023-07-08T05:39:05;7.97;;;3.15;;
22024;SDS011;11176;51.448;6.650;2023-07-08T05:41:32;6.53;;;3.28;;
22024;SDS011;11176;51.448;6.650;2023-07-08T05:43:58;5.40;;;3.33;;
22024;SDS011;11176;51.448;6.650;2023-07-08T05:46:25;6.30;;;3.10;;
22024;SDS011;11176;51.448;6.650;2023-07-08T05:48:51;12.13;;;4.20;;
22024;SDS011;11176;51.448;6.650;2023-07-08T05:51:18;18.52;;;5.05;;
22024;SDS011;11176;51.448;6.650;2023-07-08T05:53:44;21.02;;;6.05;;
22024;SDS011;11176;51.448;6.650;2023-07-08T05:56:11;19.13;;;6.10;;
22024;SDS011;11176;51.448;6.650;2023-07-08T05:58:38;19.98;;;5.65;;
22024;SDS011;11176;51.448;6.650;2023-07-08T06:01:04;23.35;;;5.88;;
22024;SDS011;11176;51.448;6.650;2023-07-08T06:03:31;33.72;;;7.35;;
22024;SDS011;11176;51.448;6.650;2023-07-08T06:05:58;13.02;;;4.07;;
22024;SDS011;11176;51.448;6.650;2023-07-08T06:08:24;6.90;;;3.60;;
22024;SDS011;11176;51.448;6.650;2023-07-08T06:10:51;7.32;;;3.35;;
22024;SDS011;11176;51.448;6.650;2023-07-08T06:13:17;8.88;;;3.60;;
22024;SDS011;11176;51.448;6.650;2023-07-08T06:15:44;5.93;;;3.33;;
22024;SDS011;11176;51.448;6.650;2023-07-08T06:18:11;5.25;;;2.83;;
22024;SDS011;11176;51.448;6.650;2023-07-08T06:20:37;6.00;;;3.20;;
22024;SDS011;11176;51.448;6.650;2023-07-08T06:23:05;6.15;;;3.00;;
22024;SDS011;11176;51.448;6.650;2023-07-08T06:25:31;7.25;;;3.72;;
22024;SDS011;11176;51.448;6.650;2023-07-08T06:27:59;8.27;;;3.45;;
22024;SDS011;11176;51.448;6.650;2023-07-08T06:30:25;4.82;;;3.20;;
22024;SDS011;11176;51.448;6.650;2023-07-08T06:32:52;6.40;;;3.10;;
22024;SDS011;11176;51.448;6.650;2023-07-08T06:35:18;4.85;;;2.92;;
22024;SDS011;11176;51.448;6.650;2023-07-08T06:37:45;5.90;;;3.22;;
22024;SDS011;11176;51.448;6.650;2023-07-08T06:40:12;6.85;;;3.70;;
22024;SDS011;11176;51.448;6.650;2023-07-08T06:42:38;7.72;;;3.70;;
22024;SDS011;11176;51.448;6.650;2023-07-08T06:45:19;7.90;;;3.83;;
22024;SDS011;11176;51.448;6.650;2023-07-08T06:47:45;6.90;;;4.13;;
22024;SDS011;11176;51.448;6.650;2023-07-08T06:50:12;7.32;;;4.00;;
22024;SDS011;11176;51.448;6.650;2023-07-08T06:52:39;7.03;;;3.85;;
22024;SDS011;11176;51.448;6.650;2023-07-08T06:55:06;9.52;;;3.95;;
22024;SDS011;11176;51.448;6.650;2023-07-08T06:57:34;9.43;;;3.88;;
22024;SDS011;11176;51.448;6.650;2023-07-08T07:00:05;8.23;;;4.18;;
22024;SDS011;11176;51.448;6.650;2023-07-08T07:02:35;7.65;;;3.92;;
22024;SDS011;11176;51.448;6.650;2023-07-08T07:05:03;8.70;;;4.32;;
22024;SDS011;11176;51.448;6.650;2023-07-08T07:07:30;7.32;;;4.40;;
22024;SDS011;11176;51.448;6.650;2023-07-08T07:09:56;6.07;;;3.92;;
22024;SDS011;11176;51.448;6.650;2023-07-08T07:12:24;7.78;;;3.80;;
22024;SDS011;11176;51.448;6.650;2023-07-08T07:14:51;10.15;;;4.20;;
22024;SDS011;11176;51.448;6.650;2023-07-08T07:17:20;6.93;;;3.88;;
22024;SDS011;11176;51.448;6.650;2023-07-08T07:19:48;7.28;;;4.20;;
22024;SDS011;11176;51.448;6.650;2023-07-08T07:22:15;11.23;;;5.22;;
22024;SDS011;11176;51.448;6.650;2023-07-08T07:24:42;10.40;;;5.68;;
22024;SDS011;11176;51.448;6.650;2023-07-08T07:27:08;9.68;;;5.00;;
22024;SDS011;11176;51.448;6.650;2023-07-08T07:29:42;9.27;;;5.43;;
22024;SDS011;11176;51.448;6.650;2023-07-08T07:32:11;8.35;;;4.28;;
22024;SDS011;11176;51.448;6.650;2023-07-08T07:34:38;12.93;;;4.53;;
22024;SDS011;11176;51.448;6.650;2023-07-08T07:37:06;7.25;;;4.75;;
22024;SDS011;11176;51.448;6.650;2023-07-08T07:39:36;7.18;;;4.38;;
22024;SDS011;11176;51.448;6.650;2023-07-08T07:42:03;7.57;;;4.43;;
22024;SDS011;11176;51.448;6.650;2023-07-08T07:44:29;8.75;;;4.65;;
22024;SDS011;11176;51.448;6.650;2023-07-08T07:46:56;10.63;;;4.25;;
22024;SDS011;11176;51.448;6.650;2023-07-08T07:49:22;6.57;;;4.15;;
22024;SDS011;11176;51.448;6.650;2023-07-08T07:51:49;8.77;;;4.72;;
22024;SDS011;11176;51.448;6.650;2023-07-08T07:54:16;7.65;;;4.60;;
22024;SDS011;11176;51.448;6.650;2023-07-08T07:56:42;7.35;;;4.85;;
22024;SDS011;11176;51.448;6.650;2023-07-08T07:59:09;6.80;;;4.43;;
22024;SDS011;11176;51.448;6.650;2023-07-08T08:01:37;7.57;;;4.80;;
22024;SDS011;11176;51.448;6.650;2023-07-08T08:04:04;10.02;;;5.30;;
22024;SDS011;11176;51.448;6.650;2023-07-08T08:06:31;6.72;;;4.90;;
22024;SDS011;11176;51.448;6.650;2023-07-08T08:08:57;9.18;;;5.13;;
22024;SDS011;11176;51.448;6.650;2023-07-08T08:11:24;8.07;;;4.95;;
22024;SDS011;11176;51.448;6.650;2023-07-08T08:13:52;7.28;;;4.50;;
22024;SDS011;11176;51.448;6.650;2023-07-08T08:16:19;8.75;;;5.10;;
22024;SDS011;11176;51.448;6.650;2023-07-08T08:18:47;8.90;;;5.03;;
22024;SDS011;11176;51.448;6.650;2023-07-08T08:21:13;7.15;;;4.93;;
22024;SDS011;11176;51.448;6.650;2023-07-08T08:23:40;7.90;;;5.40;;
22024;SDS011;11176;51.448;6.650;2023-07-08T08:26:07;8.82;;;5.03;;
22024;SDS011;11176;51.448;6.650;2023-07-08T08:28:33;8.88;;;5.65;;
22024;SDS011;11176;51.448;6.650;2023-07-08T08:31:00;8.27;;;5.53;;
22024;SDS011;11176;51.448;6.650;2023-07-08T08:33:27;8.65;;;5.30;;
22024;SDS011;11176;51.448;6.650;2023-07-08T08:35:54;9.18;;;5.53;;
22024;SDS011;11176;51.448;6.650;2023-07-08T08:38:20;10.30;;;6.40;;
22024;SDS011;11176;51.448;6.650;2023-07-08T08:40:46;9.68;;;6.32;;
22024;SDS011;11176;51.448;6.650;2023-07-08T08:43:16;7.68;;;5.20;;
22024;SDS011;11176;51.448;6.650;2023-07-08T08:48:20;8.23;;;5.30;;
22024;SDS011;11176;51.448;6.650;2023-07-08T08:50:51;7.38;;;4.90;;
22024;SDS011;11176;51.448;6.650;2023-07-08T08:53:24;8.45;;;5.38;;
22024;SDS011;11176;51.448;6.650;2023-07-08T08:55:55;8.10;;;5.15;;
22024;SDS011;11176;51.448;6.650;2023-07-08T08:58:30;7.85;;;5.60;;
22024;SDS011;11176;51.448;6.650;2023-07-08T09:01:08;13.52;;;6.35;;
22024;SDS011;11176;51.448;6.650;2023-07-08T09:06:30;10.55;;;6.22;;
22024;SDS011;11176;51.448;6.650;2023-07-08T09:09:02;10.15;;;6.10;;
22024;SDS011;11176;51.448;6.650;2023-07-08T09:11:45;9.63;;;5.40;;
22024;SDS011;11176;51.448;6.650;2023-07-08T09:14:20;9.20;;;5.22;;
22024;SDS011;11176;51.448;6.650;2023-07-08T09:19:41;6.95;;;4.65;;
22024;SDS011;11176;51.448;6.650;2023-07-08T09:24:48;8.23;;;4.82;;
22024;SDS011;11176;51.448;6.650;2023-07-08T09:27:17;8.85;;;5.15;;
22024;SDS011;11176;51.448;6.650;2023-07-08T09:29:43;6.72;;;4.65;;
22024;SDS011;11176;51.448;6.650;2023-07-08T09:32:20;6.95;;;4.68;;
22024;SDS011;11176;51.448;6.650;2023-07-08T09:34:52;7.75;;;4.78;;
22024;SDS011;11176;51.448;6.650;2023-07-08T09:39:48;8.82;;;4.97;;
22024;SDS011;11176;51.448;6.650;2023-07-08T09:42:14;6.63;;;4.60;;
22024;SDS011;11176;51.448;6.650;2023-07-08T09:44:42;6.95;;;4.95;;
22024;SDS011;11176;51.448;6.650;2023-07-08T09:47:22;8.70;;;4.32;;
22024;SDS011;11176;51.448;6.650;2023-07-08T09:49:57;4.85;;;3.30;;
22024;SDS011;11176;51.448;6.650;2023-07-08T09:52:24;3.20;;;2.15;;
22024;SDS011;11176;51.448;6.650;2023-07-08T09:54:51;6.15;;;3.25;;
22024;SDS011;11176;51.448;6.650;2023-07-08T09:57:22;5.57;;;3.22;;
22024;SDS011;11176;51.448;6.650;2023-07-08T09:59:55;7.20;;;3.75;;
22024;SDS011;11176;51.448;6.650;2023-07-08T10:04:57;8.55;;;4.90;;
22024;SDS011;11176;51.448;6.650;2023-07-08T10:07:30;9.18;;;5.57;;
22024;SDS011;11176;51.448;6.650;2023-07-08T10:09:59;8.45;;;5.70;;
22024;SDS011;11176;51.448;6.650;2023-07-08T10:12:32;4.50;;;2.88;;
22024;SDS011;11176;51.448;6.650;2023-07-08T10:15:03;5.55;;;3.33;;
22024;SDS011;11176;51.448;6.650;2023-07-08T10:17:39;8.40;;;5.03;;
22024;SDS011;11176;51.448;6.650;2023-07-08T10:20:10;6.40;;;4.40;;
22024;SDS011;11176;51.448;6.650;2023-07-08T10:25:32;5.63;;;3.13;;
22024;SDS011;11176;51.448;6.650;2023-07-08T10:42:03;8.27;;;4.30;;
22024;SDS011;11176;51.448;6.650;2023-07-08T10:44:43;3.75;;;2.30;;
22024;SDS011;11176;51.448;6.650;2023-07-08T10:55:28;3.53;;;2.10;;
22024;SDS011;11176;51.448;6.650;2023-07-08T11:00:37;6.25;;;3.78;;
22024;SDS011;11176;51.448;6.650;2023-07-08T11:03:25;7.68;;;3.88;;
22024;SDS011;11176;51.448;6.650;2023-07-08T11:14:10;3.90;;;2.63;;
22024;SDS011;11176;51.448;6.650;2023-07-08T11:16:44;3.60;;;2.28;;
22024;SDS011;11176;51.448;6.650;2023-07-08T11:21:54;5.30;;;2.90;;
22024;SDS011;11176;51.448;6.650;2023-07-08T11:24:26;4.30;;;2.78;;
22024;SDS011;11176;51.448;6.650;2023-07-08T11:27:00;4.68;;;2.40;;
22024;SDS011;11176;51.448;6.650;2023-07-08T11:29:35;5.47;;;2.78;;
22024;SDS011;11176;51.448;6.650;2023-07-08T11:32:10;4.88;;;2.58;;
22024;SDS011;11176;51.448;6.650;2023-07-08T11:34:40;4.82;;;2.92;;
22024;SDS011;11176;51.448;6.650;2023-07-08T11:37:09;5.40;;;2.50;;
22024;SDS011;11176;51.448;6.650;2023-07-08T11:39:44;3.58;;;2.13;;
22024;SDS011;11176;51.448;6.650;2023-07-08T11:47:45;4.28;;;2.10;;
22024;SDS011;11176;51.448;6.650;2023-07-08T11:52:55;2.70;;;1.80;;
22024;SDS011;11176;51.448;6.650;2023-07-08T11:55:26;6.97;;;3.25;;
22024;SDS011;11176;51.448;6.650;2023-07-08T11:58:01;6.53;;;3.45;;
22024;SDS011;11176;51.448;6.650;2023-07-08T12:00:33;6.78;;;3.40;;
22024;SDS011;11176;51.448;6.650;2023-07-08T12:03:04;5.95;;;3.33;;
22024;SDS011;11176;51.448;6.650;2023-07-08T12:05:46;4.93;;;3.00;;
22024;SDS011;11176;51.448;6.650;2023-07-08T12:08:15;4.32;;;2.53;;
22024;SDS011;11176;51.448;6.650;2023-07-08T12:10:51;3.97;;;2.90;;
22024;SDS011;11176;51.448;6.650;2023-07-08T12:13:20;2.92;;;1.88;;
22024;SDS011;11176;51.448;6.650;2023-07-08T12:15:49;3.42;;;2.10;;
22024;SDS011;11176;51.448;6.650;2023-07-08T12:18:16;4.20;;;2.20;;
22024;SDS011;11176;51.448;6.650;2023-07-08T12:20:52;4.75;;;1.95;;
22024;SDS011;11176;51.448;6.650;2023-07-08T12:23:22;3.65;;;2.20;;
22024;SDS011;11176;51.448;6.650;2023-07-08T12:25:50;3.17;;;2.00;;
22024;SDS011;11176;51.448;6.650;2023-07-08T12:28:18;3.88;;;2.30;;
22024;SDS011;11176;51.448;6.650;2023-07-08T12:30:46;3.17;;;2.08;;
22024;SDS011;11176;51.448;6.650;2023-07-08T12:33:14;2.55;;;1.60;;
22024;SDS011;11176;51.448;6.650;2023-07-08T12:35:44;3.53;;;2.10;;
22024;SDS011;11176;51.448;6.650;2023-07-08T12:38:23;3.22;;;1.92;;
22024;SDS011;11176;51.448;6.650;2023-07-08T12:40:55;3.05;;;2.05;;
22024;SDS011;11176;51.448;6.650;2023-07-08T12:43:24;2.97;;;1.90;;
22024;SDS011;11176;51.448;6.650;2023-07-08T12:45:51;2.97;;;1.80;;
22024;SDS011;11176;51.448;6.650;2023-07-08T12:48:18;3.75;;;2.00;;
22024;SDS011;11176;51.448;6.650;2023-07-08T12:50:44;3.67;;;2.20;;
22024;SDS011;11176;51.448;6.650;2023-07-08T12:53:11;3.08;;;1.80;;
22024;SDS011;11176;51.448;6.650;2023-07-08T12:55:39;2.67;;;1.80;;
22024;SDS011;11176;51.448;6.650;2023-07-08T12:58:17;3.22;;;1.83;;
22024;SDS011;11176;51.448;6.650;2023-07-08T13:00:51;8.48;;;3.42;;
22024;SDS011;11176;51.448;6.650;2023-07-08T13:03:19;6.53;;;3.88;;
22024;SDS011;11176;51.448;6.650;2023-07-08T13:05:50;3.50;;;1.95;;
22024;SDS011;11176;51.448;6.650;2023-07-08T13:08:20;3.05;;;1.90;;
22024;SDS011;11176;51.448;6.650;2023-07-08T13:10:55;3.10;;;1.95;;
22024;SDS011;11176;51.448;6.650;2023-07-08T13:13:24;3.83;;;1.85;;
22024;SDS011;11176;51.448;6.650;2023-07-08T13:15:56;5.43;;;3.40;;
22024;SDS011;11176;51.448;6.650;2023-07-08T13:18:32;2.63;;;1.60;;
22024;SDS011;11176;51.448;6.650;2023-07-08T13:21:01;3.22;;;1.73;;
22024;SDS011;11176;51.448;6.650;2023-07-08T13:23:29;2.63;;;1.70;;
22024;SDS011;11176;51.448;6.650;2023-07-08T13:25:56;4.30;;;2.47;;
22024;SDS011;11176;51.448;6.650;2023-07-08T13:28:28;2.45;;;1.65;;
22024;SDS011;11176;51.448;6.650;2023-07-08T13:30:57;2.50;;;1.77;;
22024;SDS011;11176;51.448;6.650;2023-07-08T13:33:29;3.33;;;1.77;;
22024;SDS011;11176;51.448;6.650;2023-07-08T13:35:58;3.10;;;1.63;;
22024;SDS011;11176;51.448;6.650;2023-07-08T13:38:31;3.05;;;2.20;;
22024;SDS011;11176;51.448;6.650;2023-07-08T13:43:32;3.22;;;2.03;;
22024;SDS011;11176;51.448;6.650;2023-07-08T13:46:01;4.22;;;2.58;;
22024;SDS011;11176;51.448;6.650;2023-07-08T13:48:30;4.47;;;1.88;;
22024;SDS011;11176;51.448;6.650;2023-07-08T13:51:03;2.55;;;1.60;;
22024;SDS011;11176;51.448;6.650;2023-07-08T13:53:47;4.72;;;2.35;;
22024;SDS011;11176;51.448;6.650;2023-07-08T13:56:24;3.90;;;2.35;;
22024;SDS011;11176;51.448;6.650;2023-07-08T13:59:04;2.97;;;1.77;;
22024;SDS011;11176;51.448;6.650;2023-07-08T14:01:34;3.75;;;1.60;;
22024;SDS011;11176;51.448;6.650;2023-07-08T14:04:04;5.47;;;3.20;;
22024;SDS011;11176;51.448;6.650;2023-07-08T14:06:35;2.75;;;1.77;;
22024;SDS011;11176;51.448;6.650;2023-07-08T14:09:17;2.35;;;1.58;;
22024;SDS011;11176;51.448;6.650;2023-07-08T14:11:48;3.67;;;1.80;;
22024;SDS011;11176;51.448;6.650;2023-07-08T14:14:18;4.78;;;2.40;;
22024;SDS011;11176;51.448;6.650;2023-07-08T14:16:51;6.93;;;3.72;;
22024;SDS011;11176;51.448;6.650;2023-07-08T14:19:24;2.53;;;1.70;;
22024;SDS011;11176;51.448;6.650;2023-07-08T14:21:54;3.42;;;1.90;;
22024;SDS011;11176;51.448;6.650;2023-07-08T14:24:22;2.75;;;1.65;;
22024;SDS011;11176;51.448;6.650;2023-07-08T14:26:49;2.55;;;1.65;;
22024;SDS011;11176;51.448;6.650;2023-07-08T14:29:16;2.72;;;1.55;;
22024;SDS011;11176;51.448;6.650;2023-07-08T14:31:43;2.60;;;1.55;;
22024;SDS011;11176;51.448;6.650;2023-07-08T14:34:13;2.97;;;1.58;;
22024;SDS011;11176;51.448;6.650;2023-07-08T14:36:52;2.50;;;1.70;;
22024;SDS011;11176;51.448;6.650;2023-07-08T14:39:19;2.70;;;1.80;;
22024;SDS011;11176;51.448;6.650;2023-07-08T14:41:48;2.40;;;1.38;;
22024;SDS011;11176;51.448;6.650;2023-07-08T14:44:22;3.20;;;1.77;;
22024;SDS011;11176;51.448;6.650;2023-07-08T14:46:51;3.10;;;1.58;;
22024;SDS011;11176;51.448;6.650;2023-07-08T14:49:19;2.55;;;1.65;;
22024;SDS011;11176;51.448;6.650;2023-07-08T14:51:47;3.60;;;1.67;;
22024;SDS011;11176;51.448;6.650;2023-07-08T14:54:14;2.63;;;1.50;;
22024;SDS011;11176;51.448;6.650;2023-07-08T14:56:41;2.95;;;1.70;;
22024;SDS011;11176;51.448;6.650;2023-07-08T14:59:15;5.45;;;1.70;;
22024;SDS011;11176;51.448;6.650;2023-07-08T15:01:47;2.90;;;1.70;;
22024;SDS011;11176;51.448;6.650;2023-07-08T15:04:15;4.20;;;1.65;;
22024;SDS011;11176;51.448;6.650;2023-07-08T15:06:44;3.50;;;2.00;;
22024;SDS011;11176;51.448;6.650;2023-07-08T15:09:11;3.45;;;2.05;;
22024;SDS011;11176;51.448;6.650;2023-07-08T15:11:40;3.30;;;1.88;;
22024;SDS011;11176;51.448;6.650;2023-07-08T15:14:16;3.17;;;1.70;;
22024;SDS011;11176;51.448;6.650;2023-07-08T15:16:46;2.85;;;1.70;;
22024;SDS011;11176;51.448;6.650;2023-07-08T15:19:12;3.22;;;1.77;;
22024;SDS011;11176;51.448;6.650;2023-07-08T15:21:39;5.45;;;3.03;;
22024;SDS011;11176;51.448;6.650;2023-07-08T15:24:08;4.40;;;2.60;;
22024;SDS011;11176;51.448;6.650;2023-07-08T15:26:41;4.97;;;2.42;;
22024;SDS011;11176;51.448;6.650;2023-07-08T15:29:12;8.27;;;3.38;;
22024;SDS011;11176;51.448;6.650;2023-07-08T15:31:41;4.90;;;2.95;;
22024;SDS011;11176;51.448;6.650;2023-07-08T15:34:27;3.42;;;1.90;;
22024;SDS011;11176;51.448;6.650;2023-07-08T15:36:54;3.25;;;1.90;;
22024;SDS011;11176;51.448;6.650;2023-07-08T15:39:20;3.33;;;1.80;;
22024;SDS011;11176;51.448;6.650;2023-07-08T15:41:49;2.42;;;1.70;;
22024;SDS011;11176;51.448;6.650;2023-07-08T15:44:15;3.25;;;1.90;;
22024;SDS011;11176;51.448;6.650;2023-07-08T15:46:42;3.00;;;2.03;;
22024;SDS011;11176;51.448;6.650;2023-07-08T15:51:43;3.27;;;1.97;;
22024;SDS011;11176;51.448;6.650;2023-07-08T15:54:16;3.25;;;1.73;;
22024;SDS011;11176;51.448;6.650;2023-07-08T15:56:43;3.42;;;2.10;;
22024;SDS011;11176;51.448;6.650;2023-07-08T15:59:11;3.90;;;2.45;;
22024;SDS011;11176;51.448;6.650;2023-07-08T16:01:42;3.90;;;2.20;;
22024;SDS011;11176;51.448;6.650;2023-07-08T16:04:19;2.63;;;1.50;;
22024;SDS011;11176;51.448;6.650;2023-07-08T16:06:50;4.80;;;2.10;;
22024;SDS011;11176;51.448;6.650;2023-07-08T16:09:17;3.08;;;1.77;;
22024;SDS011;11176;51.448;6.650;2023-07-08T16:11:43;4.40;;;1.77;;
22024;SDS011;11176;51.448;6.650;2023-07-08T16:14:11;2.63;;;1.60;;
22024;SDS011;11176;51.448;6.650;2023-07-08T16:16:39;2.97;;;1.77;;
22024;SDS011;11176;51.448;6.650;2023-07-08T16:19:08;5.15;;;1.88;;
22024;SDS011;11176;51.448;6.650;2023-07-08T16:21:38;4.18;;;1.85;;